TimeCST,TemperatureF,Dew PointF,Humidity,Sea Level PressureIn,VisibilityMPH,Wind Direction,Wind SpeedMPH,Gust SpeedMPH,PrecipitationIn,Events,Conditions,WindDirDegrees,DateUTC
12:15 AM,35.6,33.8,93,30.29,7.0,NNW,12.7,19.6,N/A,,Overcast,330,2013-11-22 06:15:00
12:35 AM,35.6,33.8,93,30.31,7.0,NW,11.5,-,N/A,,Overcast,320,2013-11-22 06:35:00
12:55 AM,35.6,32.0,87,30.31,10.0,NW,12.7,20.7,N/A,Rain,Light Rain,320,2013-11-22 06:55:00
1:15 AM,35.6,32.0,87,30.31,7.0,NNW,13.8,24.2,N/A,Rain,Light Rain,330,2013-11-22 07:15:00
1:35 AM,35.6,30.2,81,30.32,7.0,NW,13.8,19.6,N/A,Rain,Light Rain,320,2013-11-22 07:35:00
1:55 AM,35.6,30.2,81,30.33,4.0,NW,13.8,-,N/A,,Overcast,320,2013-11-22 07:55:00
2:15 AM,33.8,30.2,87,30.35,3.0,NW,12.7,19.6,N/A,,Overcast,320,2013-11-22 08:15:00
2:35 AM,33.8,30.2,87,30.35,3.0,NNW,17.3,23.0,N/A,Rain,Light Rain,330,2013-11-22 08:35:00
2:55 AM,33.8,30.2,87,30.34,5.0,NNW,16.1,23.0,N/A,,Overcast,330,2013-11-22 08:55:00
3:15 AM,33.8,30.2,87,30.35,4.0,NNW,17.3,20.7,N/A,,Overcast,340,2013-11-22 09:15:00
3:35 AM,33.8,28.4,81,30.37,4.0,NW,12.7,-,N/A,,Overcast,320,2013-11-22 09:35:00
3:55 AM,32.0,28.4,87,30.37,4.0,NW,13.8,18.4,N/A,,Overcast,320,2013-11-22 09:55:00
4:15 AM,32.0,28.4,87,30.37,5.0,NNW,15.0,23.0,N/A,,Overcast,330,2013-11-22 10:15:00
4:35 AM,32.0,28.4,87,30.38,10.0,NNW,16.1,19.6,N/A,,Overcast,340,2013-11-22 10:35:00
4:55 AM,32.0,28.4,87,30.39,10.0,NNW,13.8,-,N/A,,Overcast,330,2013-11-22 10:55:00
5:15 AM,32.0,26.6,80,30.39,10.0,NNW,16.1,20.7,N/A,,Overcast,330,2013-11-22 11:15:00
5:35 AM,32.0,26.6,80,30.40,10.0,NW,12.7,18.4,N/A,,Overcast,320,2013-11-22 11:35:00
5:55 AM,32.0,26.6,80,30.42,10.0,NNW,15.0,21.9,N/A,,Overcast,330,2013-11-22 11:55:00
6:15 AM,30.2,26.6,86,30.43,7.0,NNW,17.3,20.7,N/A,,Overcast,330,2013-11-22 12:15:00
6:35 AM,30.2,26.6,86,30.44,10.0,NNW,18.4,-,N/A,,Overcast,340,2013-11-22 12:35:00
6:55 AM,30.2,26.6,86,30.45,10.0,NNW,15.0,20.7,N/A,,Overcast,330,2013-11-22 12:55:00
7:15 AM,30.2,24.8,80,30.45,10.0,NNW,16.1,20.7,N/A,,Overcast,340,2013-11-22 13:15:00
7:35 AM,30.2,24.8,80,30.46,10.0,NNW,13.8,-,N/A,,Overcast,340,2013-11-22 13:35:00
7:55 AM,30.2,24.8,80,30.47,10.0,NNW,13.8,-,N/A,,Overcast,340,2013-11-22 13:55:00
8:15 AM,30.2,24.8,80,30.49,10.0,NNW,15.0,18.4,N/A,,Overcast,340,2013-11-22 14:15:00
8:35 AM,30.2,24.8,80,30.50,10.0,NNW,11.5,-,N/A,,Overcast,340,2013-11-22 14:35:00
8:55 AM,30.2,24.8,80,30.50,10.0,NNW,12.7,-,N/A,,Overcast,330,2013-11-22 14:55:00
9:15 AM,30.2,24.8,80,30.51,10.0,North,15.0,-,N/A,,Overcast,350,2013-11-22 15:15:00
9:35 AM,30.2,24.8,80,30.51,10.0,NNW,11.5,17.3,N/A,,Overcast,330,2013-11-22 15:35:00
9:55 AM,30.2,24.8,80,30.51,10.0,NNW,12.7,-,N/A,,Overcast,340,2013-11-22 15:55:00
10:15 AM,32.0,24.8,75,30.52,10.0,NNW,12.7,-,N/A,,Overcast,330,2013-11-22 16:15:00
10:35 AM,32.0,24.8,75,30.50,10.0,NNW,12.7,-,N/A,,Overcast,340,2013-11-22 16:35:00
10:55 AM,33.8,26.6,75,30.52,10.0,NNW,12.7,18.4,N/A,,Overcast,340,2013-11-22 16:55:00
11:15 AM,33.8,26.6,75,30.51,10.0,NNW,11.5,-,N/A,,Overcast,330,2013-11-22 17:15:00
11:35 AM,33.8,26.6,75,30.49,10.0,North,9.2,-,N/A,,Overcast,360,2013-11-22 17:35:00
11:55 AM,33.8,26.6,75,30.50,10.0,NNW,10.4,-,N/A,,Overcast,330,2013-11-22 17:55:00
12:15 PM,33.8,26.6,75,30.50,10.0,NNW,11.5,-,N/A,,Overcast,330,2013-11-22 18:15:00
12:35 PM,33.8,26.6,75,30.51,10.0,NNW,11.5,19.6,N/A,,Overcast,330,2013-11-22 18:35:00
12:55 PM,35.6,26.6,70,30.51,10.0,NNW,13.8,19.6,N/A,,Overcast,330,2013-11-22 18:55:00
1:15 PM,35.6,26.6,70,30.52,10.0,NNW,13.8,-,N/A,,Overcast,340,2013-11-22 19:15:00
1:35 PM,35.6,26.6,70,30.53,10.0,NNW,13.8,-,N/A,,Overcast,330,2013-11-22 19:35:00
1:55 PM,35.6,26.6,70,30.53,10.0,NNW,12.7,-,N/A,,Overcast,330,2013-11-22 19:55:00
2:15 PM,33.8,26.6,75,30.54,10.0,NW,11.5,19.6,N/A,,Overcast,320,2013-11-22 20:15:00
2:35 PM,33.8,26.6,75,30.54,10.0,NNW,13.8,-,N/A,,Overcast,340,2013-11-22 20:35:00
2:55 PM,33.8,24.8,70,30.54,10.0,NNW,13.8,-,N/A,,Overcast,330,2013-11-22 20:55:00
3:15 PM,33.8,24.8,70,30.55,10.0,NNW,12.7,-,N/A,,Mostly Cloudy,340,2013-11-22 21:15:00
3:35 PM,33.8,24.8,70,30.55,10.0,NNW,13.8,17.3,N/A,,Mostly Cloudy,340,2013-11-22 21:35:00
3:55 PM,33.8,24.8,70,30.54,10.0,NNW,12.7,16.1,N/A,,Scattered Clouds,340,2013-11-22 21:55:00
4:15 PM,32.0,24.8,75,30.54,10.0,NNW,11.5,-,N/A,,Clear,340,2013-11-22 22:15:00
4:35 PM,30.2,23.0,75,30.54,10.0,NNW,8.1,-,N/A,,Clear,330,2013-11-22 22:35:00
4:55 PM,30.2,21.2,69,30.55,10.0,NNW,12.7,-,N/A,,Clear,340,2013-11-22 22:55:00
5:15 PM,30.2,21.2,69,30.54,10.0,NNW,11.5,-,N/A,,Clear,340,2013-11-22 23:15:00
5:35 PM,28.4,21.2,74,30.54,10.0,NNW,9.2,-,N/A,,Clear,340,2013-11-22 23:35:00
5:55 PM,28.4,21.2,74,30.54,10.0,NNW,8.1,-,N/A,,Clear,340,2013-11-22 23:55:00
6:15 PM,28.4,21.2,74,30.55,10.0,NW,5.8,-,N/A,,Clear,320,2013-11-23 00:15:00
6:35 PM,26.6,21.2,80,30.55,10.0,NW,6.9,-,N/A,,Clear,320,2013-11-23 00:35:00
6:55 PM,26.6,21.2,80,30.55,10.0,WNW,4.6,-,N/A,,Clear,300,2013-11-23 00:55:00
7:15 PM,26.6,21.2,80,30.55,10.0,WNW,4.6,-,N/A,,Clear,290,2013-11-23 01:15:00
7:35 PM,26.6,21.2,80,30.56,10.0,WNW,5.8,-,N/A,,Clear,290,2013-11-23 01:35:00
7:55 PM,26.6,19.4,74,30.56,10.0,West,5.8,-,N/A,,Clear,280,2013-11-23 01:55:00
8:15 PM,24.8,19.4,80,30.56,10.0,West,6.9,-,N/A,,Clear,280,2013-11-23 02:15:00
8:35 PM,24.8,19.4,80,30.57,10.0,West,4.6,-,N/A,,Clear,280,2013-11-23 02:35:00
8:55 PM,24.8,19.4,80,30.57,10.0,West,4.6,-,N/A,,Clear,280,2013-11-23 02:55:00
9:15 PM,24.8,19.4,80,30.57,10.0,West,5.8,-,N/A,,Clear,280,2013-11-23 03:15:00
9:35 PM,23.0,19.4,86,30.57,10.0,West,6.9,-,N/A,,Clear,280,2013-11-23 03:35:00
9:55 PM,23.0,17.6,80,30.57,10.0,WNW,6.9,-,N/A,,Clear,290,2013-11-23 03:55:00
10:15 PM,23.0,17.6,80,30.57,10.0,WNW,6.9,-,N/A,,Clear,290,2013-11-23 04:15:00
10:35 PM,21.2,15.8,80,30.57,10.0,WNW,6.9,-,N/A,,Clear,300,2013-11-23 04:35:00
10:55 PM,21.2,15.8,80,30.56,10.0,NW,5.8,-,N/A,,Clear,310,2013-11-23 04:55:00
11:15 PM,21.2,15.8,80,30.56,10.0,WNW,4.6,-,N/A,,Clear,290,2013-11-23 05:15:00
11:35 PM,19.4,15.8,86,30.56,10.0,West,4.6,-,N/A,,Clear,270,2013-11-23 05:35:00
11:55 PM,21.2,15.8,80,30.56,10.0,West,4.6,-,N/A,,Clear,280,2013-11-23 05:55:00